< < Back
Terminal Aerodrome Forecast


Current Version              Previous Versions:   1  2  3  4  5  6  7  8  9  

Terminal Aerodrome Forecast

632
FTUS44 KMOB 170500
TAFMOB
TAF
KMOB 170537Z 1706/1806 VRB03KT P6SM SCT200
     FM170900 08006KT P6SM SCT025 BKN200
     FM171200 08011KT P6SM BKN020 BKN200
     FM171600 10013G20KT P6SM BKN030 BKN200=



Latest METAR

434
SAUS80 KWBC 171000
MTRMOB
METAR KMOB 170956Z AUTO 06007KT 10SM OVC040 10/08 A3017 RMK AO2 SLP214
T01000083


USA.gov is the U.S. government's official web portal to all federal, state and local government web resources and services.